createdAt,value
2022-11-03T00:02:40.153Z,98.28
2022-11-03T00:05:41.574Z,98.33
2022-11-03T00:08:43.406Z,98.79
2022-11-03T00:11:46.945Z,98.93
2022-11-03T00:14:48.390Z,98.61
2022-11-03T00:17:49.823Z,99.54
2022-11-03T00:21:06.228Z,98.97
2022-11-03T00:24:07.838Z,98.52
2022-11-03T00:27:09.271Z,98.67
2022-11-03T00:30:11.166Z,98.95
2022-11-03T00:33:12.589Z,98.57
2022-11-03T00:36:17.626Z,98.46
2022-11-03T00:39:19.017Z,98.79
2022-11-03T00:42:20.459Z,98.00
2022-11-03T00:45:21.851Z,96.81
2022-11-03T00:48:23.727Z,96.49
2022-11-03T00:51:27.529Z,95.80
2022-11-03T00:54:28.951Z,95.78
2022-11-03T00:57:30.349Z,95.40
2022-11-03T01:00:31.747Z,95.26
2022-11-03T01:03:35.419Z,95.13
2022-11-03T01:06:39.439Z,95.72
2022-11-03T01:09:41.313Z,96.59
2022-11-03T01:12:42.741Z,96.08
2022-11-03T01:15:44.167Z,96.75
2022-11-03T01:18:45.635Z,96.75
2022-11-03T01:21:47.041Z,96.32
2022-11-03T01:24:48.593Z,96.76
2022-11-03T01:27:49.983Z,97.17
2022-11-03T01:30:51.406Z,98.19
2022-11-03T01:33:55.007Z,97.62
2022-11-03T01:36:56.446Z,97.75
2022-11-03T01:39:57.852Z,98.02
2022-11-03T01:43:18.257Z,97.81
2022-11-03T01:46:24.879Z,97.95
2022-11-03T01:50:10.343Z,97.60
2022-11-03T01:53:12.826Z,98.67
2022-11-03T01:56:16.137Z,99.56
2022-11-03T01:59:22.934Z,99.63
2022-11-03T02:02:25.396Z,99.92
2022-11-03T02:05:28.508Z,100.00
2022-11-03T02:08:41.512Z,100.00
2022-11-03T02:11:42.904Z,100.00
2022-11-03T02:14:53.299Z,100.00
2022-11-03T02:17:56.277Z,100.00
2022-11-03T02:21:16.021Z,100.00
2022-11-03T02:24:23.340Z,100.00
2022-11-03T02:27:25.399Z,100.00
2022-11-03T02:30:31.919Z,100.00
2022-11-03T02:33:45.612Z,100.00
2022-11-03T02:36:55.877Z,100.00
2022-11-03T02:40:06.288Z,100.00
2022-11-03T02:43:09.965Z,100.00
2022-11-03T02:46:15.047Z,100.00
2022-11-03T02:49:16.499Z,100.00
2022-11-03T02:52:33.732Z,100.00
2022-11-03T02:55:39.160Z,100.00
2022-11-03T02:59:02.430Z,100.00
2022-11-03T03:02:10.016Z,100.00
2022-11-03T03:05:16.110Z,100.00
2022-11-03T03:08:20.154Z,100.00
2022-11-03T03:11:21.694Z,100.00
2022-11-03T03:14:33.514Z,100.00
2022-11-03T03:17:44.279Z,100.00
2022-11-03T03:20:54.945Z,100.00
2022-11-03T03:24:07.998Z,100.00
2022-11-03T03:27:12.650Z,100.00
2022-11-03T03:30:14.778Z,100.00
2022-11-03T03:33:18.378Z,100.00
2022-11-03T03:36:22.521Z,100.00
2022-11-03T03:39:28.757Z,100.00
2022-11-03T03:42:32.612Z,100.00
2022-11-03T03:45:35.500Z,100.00
2022-11-03T03:48:37.467Z,100.00
2022-11-03T03:51:39.169Z,100.00
2022-11-03T03:54:40.579Z,100.00
2022-11-03T03:57:43.156Z,100.00
2022-11-03T04:00:44.899Z,100.00
2022-11-03T04:03:46.364Z,100.00
2022-11-03T04:06:48.124Z,100.00
2022-11-03T04:09:49.589Z,100.00
2022-11-03T04:12:51.428Z,100.00
2022-11-03T04:15:52.885Z,100.00
2022-11-03T04:18:54.291Z,100.00
2022-11-03T04:21:55.724Z,100.00
2022-11-03T04:24:58.122Z,100.00
2022-11-03T04:27:59.544Z,100.00
2022-11-03T04:31:00.951Z,100.00
2022-11-03T04:34:04.665Z,100.00
2022-11-03T04:37:11.991Z,100.00
2022-11-03T04:40:16.120Z,100.00
2022-11-03T04:43:19.160Z,100.00
2022-11-03T04:46:27.006Z,100.00
2022-11-03T04:49:28.523Z,100.00
2022-11-03T04:52:30.120Z,100.00
2022-11-03T04:55:31.555Z,100.00
2022-11-03T04:58:35.416Z,100.00
2022-11-03T05:01:37.073Z,100.00
2022-11-03T05:04:38.704Z,100.00
2022-11-03T05:07:40.138Z,100.00
2022-11-03T05:10:41.548Z,100.00
2022-11-03T05:13:43.143Z,100.00
2022-11-03T05:16:45.421Z,100.00
2022-11-03T05:19:47.141Z,100.00
2022-11-03T05:22:48.620Z,100.00
2022-11-03T05:25:53.376Z,100.00
2022-11-03T05:29:38.442Z,100.00
2022-11-03T05:32:39.863Z,100.00
2022-11-03T05:35:41.377Z,100.00
2022-11-03T05:38:42.902Z,100.00
2022-11-03T05:41:44.332Z,100.00
2022-11-03T05:44:45.834Z,100.00
2022-11-03T05:47:48.668Z,100.00
2022-11-03T05:50:50.275Z,100.00
2022-11-03T05:53:55.491Z,100.00
2022-11-03T05:56:56.923Z,100.00
2022-11-03T05:59:58.374Z,100.00
2022-11-03T06:03:01.143Z,100.00
2022-11-03T06:06:11.323Z,100.00
2022-11-03T06:09:17.906Z,100.00
2022-11-03T06:12:22.137Z,100.00
2022-11-03T06:15:31.746Z,100.00
2022-11-03T06:18:36.228Z,100.00
2022-11-03T06:21:43.337Z,100.00
2022-11-03T06:24:46.863Z,100.00
2022-11-03T06:27:48.357Z,100.00
2022-11-03T06:30:51.296Z,100.00
2022-11-03T06:33:55.252Z,100.00
2022-11-03T06:37:01.512Z,100.00
2022-11-03T06:40:22.860Z,100.00
2022-11-03T06:43:27.309Z,100.00
2022-11-03T06:46:30.744Z,100.00
2022-11-03T06:49:34.827Z,100.00
2022-11-03T06:52:39.705Z,100.00
2022-11-03T06:55:41.203Z,100.00
2022-11-03T06:58:42.835Z,100.00
2022-11-03T07:01:48.446Z,100.00
2022-11-03T07:04:50.047Z,100.00
2022-11-03T07:07:55.820Z,100.00
2022-11-03T07:11:14.465Z,100.00
2022-11-03T07:14:17.958Z,100.00
2022-11-03T07:17:21.214Z,100.00
2022-11-03T07:20:22.803Z,100.00
2022-11-03T07:23:30.487Z,100.00
2022-11-03T07:26:33.615Z,100.00
2022-11-03T07:29:35.052Z,100.00
2022-11-03T07:32:36.496Z,100.00
2022-11-03T07:36:13.292Z,100.00
2022-11-03T07:39:03.167Z,100.00
2022-11-03T07:42:17.595Z,100.00
2022-11-03T07:45:37.298Z,100.00
2022-11-03T07:48:50.847Z,100.00
2022-11-03T07:51:52.975Z,100.00
2022-11-03T07:54:56.213Z,100.00
2022-11-03T07:57:59.473Z,100.00
2022-11-03T08:01:03.655Z,100.00
2022-11-03T08:04:06.682Z,100.00
2022-11-03T08:07:08.153Z,100.00
2022-11-03T08:10:10.235Z,100.00
2022-11-03T08:13:11.678Z,100.00
2022-11-03T08:16:13.144Z,100.00
2022-11-03T08:19:14.635Z,100.00
2022-11-03T08:22:16.047Z,100.00
2022-11-03T08:25:17.475Z,100.00
2022-11-03T08:28:18.948Z,100.00
2022-11-03T08:31:20.546Z,100.00
2022-11-03T08:34:21.995Z,100.00
2022-11-03T08:37:23.411Z,100.00
2022-11-03T08:40:24.923Z,100.00
2022-11-03T08:43:26.462Z,100.00
2022-11-03T08:46:27.982Z,100.00
2022-11-03T08:49:29.450Z,100.00
2022-11-03T08:52:30.894Z,100.00
2022-11-03T08:55:32.330Z,100.00
2022-11-03T08:58:33.743Z,100.00
2022-11-03T09:01:35.199Z,100.00
2022-11-03T09:04:36.640Z,100.00
2022-11-03T09:11:02.657Z,100.00
2022-11-03T09:14:04.111Z,100.00
2022-11-03T09:17:05.560Z,100.00
2022-11-03T09:20:07.228Z,100.00
2022-11-03T09:23:08.688Z,100.00
2022-11-03T09:26:10.117Z,100.00
2022-11-03T09:29:11.515Z,100.00
2022-11-03T09:32:12.980Z,100.00
2022-11-03T09:35:14.712Z,100.00
2022-11-03T09:38:16.168Z,100.00
2022-11-03T09:41:26.330Z,100.00
2022-11-03T09:44:37.163Z,100.00
2022-11-03T09:47:41.882Z,99.21
2022-11-03T09:50:43.366Z,98.12
2022-11-03T09:53:45.060Z,97.93
2022-11-03T09:56:46.527Z,98.04
2022-11-03T09:59:50.527Z,98.08
2022-11-03T10:02:52.258Z,97.78
2022-11-03T10:05:53.686Z,97.35
2022-11-03T10:08:55.303Z,97.41
2022-11-03T10:11:56.740Z,98.05
2022-11-03T10:14:59.434Z,97.78
2022-11-03T10:18:01.580Z,98.00
2022-11-03T10:21:14.276Z,97.74
2022-11-03T10:24:16.111Z,96.55
2022-11-03T10:27:26.438Z,95.99
2022-11-03T10:30:32.497Z,95.78
2022-11-03T10:33:42.100Z,94.90
2022-11-03T10:36:48.127Z,94.78
2022-11-03T10:39:54.242Z,93.94
2022-11-03T10:42:59.028Z,93.95
2022-11-03T10:49:43.697Z,92.56
2022-11-03T10:52:45.496Z,93.21
2022-11-03T10:55:47.003Z,93.11
2022-11-03T10:58:49.093Z,91.68
2022-11-03T11:01:51.220Z,90.47
2022-11-03T11:05:01.109Z,89.31
2022-11-03T11:08:02.652Z,87.89
2022-11-03T11:11:06.745Z,88.91
2022-11-03T11:14:34.091Z,88.06
2022-11-03T11:17:41.358Z,88.49
2022-11-03T11:20:42.817Z,89.09
2022-11-03T11:23:45.816Z,89.18
2022-11-03T11:26:47.267Z,89.38
2022-11-03T11:29:48.760Z,88.88
2022-11-03T11:32:59.962Z,87.69
2022-11-03T11:36:02.807Z,88.88
2022-11-03T11:39:10.024Z,88.58
2022-11-03T11:42:16.178Z,88.07
2022-11-03T11:45:56.008Z,87.81
2022-11-03T11:48:57.410Z,86.69
2022-11-03T11:52:01.106Z,88.00
2022-11-03T11:55:03.299Z,88.03
2022-11-03T11:58:13.574Z,87.31
2022-11-03T12:01:26.712Z,88.00
2022-11-03T12:04:29.773Z,88.00
2022-11-03T12:07:37.324Z,87.68
2022-11-03T12:10:38.742Z,88.66
2022-11-03T12:13:46.231Z,87.39
2022-11-03T12:16:47.713Z,87.31
2022-11-03T12:19:51.354Z,87.93
2022-11-03T12:22:52.759Z,87.60
2022-11-03T12:25:54.205Z,87.34
2022-11-03T12:28:55.752Z,87.08
2022-11-03T12:31:57.163Z,87.22
2022-11-03T12:34:58.595Z,86.36
2022-11-03T12:37:59.994Z,86.30
2022-11-03T12:41:01.799Z,85.60
2022-11-03T12:44:03.579Z,82.63
2022-11-03T12:47:05.135Z,82.55
2022-11-03T12:50:06.732Z,81.34
2022-11-03T12:53:08.549Z,81.76
2022-11-03T12:56:11.832Z,80.52
2022-11-03T12:59:13.391Z,79.48
2022-11-03T13:02:15.013Z,79.10
2022-11-03T13:05:16.632Z,78.73
2022-11-03T13:11:19.427Z,78.24
2022-11-03T13:14:20.870Z,81.14
2022-11-03T13:17:22.276Z,80.99
2022-11-03T13:20:23.860Z,80.85
2022-11-03T13:23:25.262Z,82.38
2022-11-03T13:26:26.666Z,82.88
2022-11-03T13:29:32.440Z,82.84
2022-11-03T13:32:36.511Z,83.60
2022-11-03T13:35:37.975Z,83.91
2022-11-03T13:38:39.451Z,84.39
2022-11-03T13:41:40.897Z,84.64
2022-11-03T13:44:42.379Z,84.20
2022-11-03T13:51:05.501Z,84.35
2022-11-03T14:00:49.934Z,85.00
2022-11-03T14:07:12.894Z,84.20
2022-11-03T14:10:14.333Z,85.13
2022-11-03T14:13:15.780Z,85.43
2022-11-03T14:16:17.264Z,86.54
2022-11-03T14:19:18.735Z,86.02
2022-11-03T14:22:21.523Z,86.13
2022-11-03T14:25:23.011Z,85.89
2022-11-03T14:28:26.221Z,86.73
2022-11-03T14:31:27.915Z,86.27
2022-11-03T14:34:29.428Z,86.42
2022-11-03T14:37:31.033Z,86.84
2022-11-03T14:40:32.505Z,86.13
2022-11-03T14:43:35.243Z,86.95
2022-11-03T14:46:36.994Z,88.10
2022-11-03T14:49:38.715Z,87.86
2022-11-03T14:52:40.139Z,87.48
2022-11-03T14:55:41.565Z,87.32
2022-11-03T14:58:42.984Z,88.33
2022-11-03T15:01:45.774Z,88.70
2022-11-03T15:04:47.303Z,89.56
2022-11-03T15:07:48.712Z,89.98
2022-11-03T15:10:50.426Z,90.01
2022-11-03T15:13:52.806Z,91.56
2022-11-03T15:16:54.318Z,93.37
2022-11-03T15:19:55.760Z,93.08
2022-11-03T15:26:18.763Z,94.94
2022-11-03T15:29:20.187Z,94.86
2022-11-03T15:32:21.591Z,95.02
2022-11-03T15:35:23.517Z,95.11
2022-11-03T15:38:24.986Z,95.41
2022-11-03T15:41:26.439Z,96.23
2022-11-03T15:44:27.859Z,96.26
2022-11-03T15:47:29.268Z,96.67
2022-11-03T15:50:30.782Z,97.34
2022-11-03T15:53:32.441Z,99.45
2022-11-03T15:56:33.854Z,100.00
2022-11-03T15:59:35.322Z,100.00
2022-11-03T16:02:41.838Z,100.00
2022-11-03T16:05:43.799Z,100.00
2022-11-03T16:08:45.227Z,100.00
2022-11-03T16:11:46.634Z,100.00
2022-11-03T16:14:48.048Z,100.00
2022-11-03T16:17:49.439Z,100.00
2022-11-03T16:20:50.823Z,100.00
2022-11-03T16:23:52.251Z,100.00
2022-11-03T16:26:53.646Z,100.00
2022-11-03T16:29:55.074Z,100.00
2022-11-03T16:32:56.520Z,100.00
2022-11-03T16:35:57.973Z,100.00
2022-11-03T16:38:59.383Z,100.00
2022-11-03T16:42:00.795Z,100.00
2022-11-03T16:45:02.172Z,100.00
2022-11-03T16:48:03.922Z,100.00
2022-11-03T16:51:05.519Z,100.00
2022-11-03T16:54:06.963Z,100.00
2022-11-03T16:57:08.371Z,100.00
2022-11-03T17:00:18.455Z,100.00
2022-11-03T17:03:19.875Z,100.00
2022-11-03T17:06:21.300Z,100.00
2022-11-03T17:09:22.699Z,100.00
2022-11-03T17:12:24.292Z,100.00
2022-11-03T17:15:25.720Z,100.00
2022-11-03T17:18:27.124Z,100.00
2022-11-03T17:21:28.530Z,100.00
2022-11-03T17:24:29.971Z,100.00
2022-11-03T17:27:43.106Z,100.00
2022-11-03T17:30:44.780Z,100.00
2022-11-03T17:33:46.329Z,100.00
2022-11-03T17:36:47.808Z,100.00
2022-11-03T17:39:49.438Z,100.00
2022-11-03T17:42:52.046Z,100.00
2022-11-03T17:45:53.895Z,100.00
2022-11-03T17:48:55.369Z,100.00
2022-11-03T17:51:56.821Z,100.00
2022-11-03T17:54:59.620Z,100.00
2022-11-03T17:58:02.729Z,100.00
2022-11-03T18:01:05.565Z,100.00
2022-11-03T18:04:12.724Z,100.00
2022-11-03T18:07:23.967Z,100.00
2022-11-03T18:10:28.299Z,100.00
2022-11-03T18:13:34.330Z,100.00
2022-11-03T18:16:36.123Z,100.00
2022-11-03T18:19:37.522Z,100.00
2022-11-03T18:22:38.911Z,100.00
2022-11-03T18:25:40.309Z,100.00
2022-11-03T18:28:41.780Z,100.00
2022-11-03T18:31:45.917Z,100.00
2022-11-03T18:34:47.311Z,100.00
2022-11-03T18:37:49.523Z,100.00
2022-11-03T18:40:51.458Z,100.00
2022-11-03T18:43:52.880Z,100.00
2022-11-03T18:46:54.665Z,100.00
2022-11-03T18:49:56.067Z,100.00
2022-11-03T18:52:57.533Z,100.00
2022-11-03T18:56:00.888Z,100.00
2022-11-03T18:59:02.326Z,100.00
2022-11-03T19:02:14.849Z,100.00
2022-11-03T19:05:18.092Z,100.00
2022-11-03T19:08:27.144Z,100.00
2022-11-03T19:11:28.579Z,100.00
2022-11-03T19:14:36.443Z,100.00
2022-11-03T19:17:37.862Z,100.00
2022-11-03T19:20:39.270Z,100.00
2022-11-03T19:23:43.007Z,100.00
2022-11-03T19:27:01.263Z,100.00
2022-11-03T19:30:04.085Z,100.00
2022-11-03T19:33:06.453Z,100.00
2022-11-03T19:36:08.323Z,100.00
2022-11-03T19:39:21.247Z,100.00
2022-11-03T19:42:22.636Z,100.00
2022-11-03T19:45:24.614Z,100.00
2022-11-03T19:48:31.923Z,100.00
2022-11-03T19:51:33.826Z,100.00
2022-11-03T19:54:35.240Z,100.00
2022-11-03T19:57:36.696Z,100.00
2022-11-03T20:00:38.208Z,100.00
2022-11-03T20:03:39.743Z,100.00
2022-11-03T20:06:41.204Z,100.00
2022-11-03T20:09:43.710Z,100.00
2022-11-03T20:12:46.249Z,100.00
2022-11-03T20:15:48.205Z,100.00
2022-11-03T20:18:49.704Z,100.00
2022-11-03T20:21:51.416Z,100.00
2022-11-03T20:24:57.673Z,100.00
2022-11-03T20:27:59.450Z,100.00
2022-11-03T20:31:00.901Z,100.00
2022-11-03T20:34:02.305Z,100.00
2022-11-03T20:37:14.231Z,100.00
2022-11-03T20:40:18.307Z,100.00
2022-11-03T20:43:26.591Z,100.00
2022-11-03T20:46:33.279Z,100.00
2022-11-03T20:49:34.705Z,100.00
2022-11-03T20:52:38.009Z,100.00
2022-11-03T20:55:39.430Z,100.00
2022-11-03T20:58:40.963Z,100.00
2022-11-03T21:01:43.235Z,100.00
2022-11-03T21:04:45.060Z,100.00
2022-11-03T21:07:46.839Z,100.00
2022-11-03T21:10:48.259Z,100.00
2022-11-03T21:13:51.063Z,100.00
2022-11-03T21:16:52.552Z,100.00
2022-11-03T21:19:54.008Z,100.00
2022-11-03T21:22:55.430Z,100.00
2022-11-03T21:25:57.523Z,100.00
2022-11-03T21:28:58.927Z,100.00
2022-11-03T21:32:00.333Z,100.00
2022-11-03T21:35:01.741Z,100.00
2022-11-03T21:38:03.820Z,100.00
2022-11-03T21:41:07.868Z,100.00
2022-11-03T21:44:09.349Z,100.00
2022-11-03T21:47:11.484Z,100.00
2022-11-03T21:50:12.975Z,100.00
2022-11-03T21:53:14.496Z,100.00
2022-11-03T21:56:16.097Z,100.00
2022-11-03T21:59:17.554Z,100.00
2022-11-03T22:02:19.198Z,100.00
2022-11-03T22:05:20.647Z,100.00
2022-11-03T22:08:22.065Z,100.00
2022-11-03T22:11:23.473Z,100.00
2022-11-03T22:14:25.360Z,100.00
2022-11-03T22:17:26.773Z,100.00
2022-11-03T22:20:28.257Z,100.00
2022-11-03T22:23:31.653Z,100.00
2022-11-03T22:26:35.444Z,100.00
2022-11-03T22:29:36.915Z,100.00
2022-11-03T22:32:39.078Z,100.00
2022-11-03T22:35:40.508Z,100.00
2022-11-03T22:38:41.911Z,100.00
2022-11-03T22:41:43.336Z,100.00
2022-11-03T22:44:44.733Z,100.00
2022-11-03T22:47:46.150Z,100.00
2022-11-03T22:50:47.617Z,100.00
2022-11-03T22:53:49.030Z,100.00
2022-11-03T22:56:50.436Z,100.00
2022-11-03T22:59:51.842Z,100.00
2022-11-03T23:02:53.731Z,100.00
2022-11-03T23:05:59.651Z,100.00
2022-11-03T23:09:01.112Z,100.00
2022-11-03T23:12:03.245Z,100.00
2022-11-03T23:15:05.156Z,100.00
2022-11-03T23:18:06.559Z,100.00
2022-11-03T23:21:08.619Z,100.00
2022-11-03T23:24:10.033Z,100.00
2022-11-03T23:27:11.547Z,100.00
2022-11-03T23:30:13.151Z,100.00
2022-11-03T23:33:14.599Z,100.00
2022-11-03T23:36:17.346Z,100.00
2022-11-03T23:39:20.151Z,100.00
2022-11-03T23:42:21.550Z,100.00
2022-11-03T23:45:22.979Z,100.00
2022-11-03T23:48:24.391Z,100.00
2022-11-03T23:51:28.340Z,100.00
2022-11-03T23:54:29.906Z,100.00
2022-11-03T23:57:31.313Z,100.00
